Barberville, Florida
Current Conditions -  °F | °C
As of 2:15 PM on Saturday 25 Oct 2014 (Local Time) from KDED Reporting Station
Clear Clear  
Wind Chill: 75°   Ceiling: Unl
Heat Index: 75°   Visibility: 10mi
Dew Point: 55°   Wind: 3mph
Humidity: 50%   Direction: 290°WNW
Pressure: 29.97"   Gusts: NA
Location:  29.19°N, 81.42°W
Report Text: KDED 251815Z AUTO 29003KT 10SM CLR 24/13 A2997 RMK AO1
Loading
Personal Weather Stations






























Interactive Weather Map New forecast layout! Learn more

10-Day Weather Forecast

Advertisements
Track Severe Weather on mobile